createdAt,value
2024-05-09T00:02:12.933Z,55.50
2024-05-09T00:07:16.728Z,55.50
2024-05-09T00:12:20.570Z,55.50
2024-05-09T00:17:24.649Z,55.40
2024-05-09T00:22:28.610Z,55.60
2024-05-09T00:27:32.329Z,55.50
2024-05-09T00:32:36.123Z,55.50
2024-05-09T00:37:40.184Z,55.50
2024-05-09T00:42:43.939Z,55.10
2024-05-09T00:47:48.081Z,55.40
2024-05-09T00:52:51.937Z,55.50
2024-05-09T00:57:56.124Z,55.90
2024-05-09T01:03:02.329Z,55.60
2024-05-09T01:08:07.635Z,56.00
2024-05-09T01:13:11.293Z,55.90
2024-05-09T01:18:15.908Z,55.60
2024-05-09T01:23:19.721Z,55.60
2024-05-09T01:28:23.434Z,55.80
2024-05-09T01:33:27.369Z,55.70
2024-05-09T01:38:31.560Z,55.70
2024-05-09T01:43:42.727Z,55.60
2024-05-09T01:48:47.094Z,55.70
2024-05-09T01:53:52.299Z,55.70
2024-05-09T01:58:55.918Z,56.10
2024-05-09T02:04:00.049Z,55.90
2024-05-09T02:09:06.904Z,56.20
2024-05-09T02:14:11.151Z,56.10
2024-05-09T02:19:15.520Z,55.80
2024-05-09T02:24:19.401Z,55.80
2024-05-09T02:29:26.356Z,55.90
2024-05-09T02:34:30.206Z,56.00
2024-05-09T02:39:41.525Z,55.90
2024-05-09T02:44:45.437Z,56.00
2024-05-09T02:49:49.153Z,56.10
2024-05-09T02:54:55.385Z,56.00
2024-05-09T02:59:59.306Z,56.40
2024-05-09T03:05:12.256Z,56.00
2024-05-09T03:10:22.274Z,56.20
2024-05-09T03:15:32.321Z,56.20
2024-05-09T03:20:41.039Z,56.60
2024-05-09T03:25:47.358Z,56.30
2024-05-09T03:30:51.259Z,56.40
2024-05-09T03:35:55.166Z,56.30
2024-05-09T03:40:58.816Z,56.70
2024-05-09T03:46:02.426Z,56.50
2024-05-09T03:51:07.384Z,56.50
2024-05-09T03:56:11.236Z,56.40
2024-05-09T04:01:15.465Z,56.50
2024-05-09T04:06:26.391Z,56.60
2024-05-09T04:11:29.992Z,57.00
2024-05-09T04:16:33.660Z,56.70
2024-05-09T04:21:37.458Z,57.20
2024-05-09T04:26:41.288Z,56.50
2024-05-09T04:31:45.059Z,56.50
2024-05-09T04:36:48.769Z,56.90
2024-05-09T04:41:52.555Z,56.60
2024-05-09T04:46:56.460Z,56.80
2024-05-09T04:52:00.243Z,57.00
2024-05-09T04:57:04.377Z,56.60
2024-05-09T05:02:07.994Z,56.50
2024-05-09T05:07:11.943Z,56.60
2024-05-09T05:12:34.244Z,56.70
2024-05-09T05:17:38.183Z,56.60
2024-05-09T05:22:43.840Z,56.80
2024-05-09T05:27:47.652Z,56.50
2024-05-09T05:32:51.822Z,56.50
2024-05-09T05:37:55.726Z,56.60
2024-05-09T05:42:59.813Z,56.30
2024-05-09T05:48:06.096Z,56.50
2024-05-09T05:53:10.942Z,56.30
2024-05-09T05:58:15.055Z,55.90
2024-05-09T06:03:18.999Z,56.40
2024-05-09T06:08:23.115Z,57.00
2024-05-09T06:13:28.097Z,56.40
2024-05-09T06:18:32.281Z,58.20
2024-05-09T06:23:36.125Z,57.80
2024-05-09T06:28:40.299Z,57.70
2024-05-09T06:33:44.283Z,58.20
2024-05-09T06:38:48.737Z,59.10
2024-05-09T06:43:52.420Z,58.60
2024-05-09T06:48:57.015Z,58.90
2024-05-09T06:54:00.808Z,60.10
2024-05-09T06:59:07.081Z,59.90
2024-05-09T07:04:11.322Z,60.00
2024-05-09T07:09:15.627Z,60.30
2024-05-09T07:14:19.424Z,60.40
2024-05-09T07:19:23.143Z,58.70
2024-05-09T07:24:26.917Z,57.40
2024-05-09T07:29:30.566Z,57.60
2024-05-09T07:34:34.655Z,57.20
2024-05-09T07:39:39.272Z,56.40
2024-05-09T07:44:42.949Z,56.90
2024-05-09T07:51:32.573Z,56.60
2024-05-09T07:55:10.709Z,56.40
2024-05-09T08:00:20.245Z,56.90
2024-05-09T08:05:27.277Z,56.70
2024-05-09T08:10:31.170Z,56.50
2024-05-09T08:15:38.219Z,56.50
2024-05-09T08:20:42.584Z,56.40
2024-05-09T08:25:46.202Z,56.60
2024-05-09T08:30:50.030Z,56.10
2024-05-09T08:35:53.855Z,55.90
2024-05-09T08:40:57.438Z,55.80
2024-05-09T08:46:04.665Z,55.80
2024-05-09T08:51:08.308Z,55.70
2024-05-09T08:56:12.194Z,55.60
2024-05-09T09:01:18.976Z,55.40
2024-05-09T09:06:24.386Z,55.30
2024-05-09T09:11:27.960Z,55.30
2024-05-09T09:16:33.818Z,55.20
2024-05-09T09:21:38.389Z,55.10
2024-05-09T09:26:45.361Z,55.00
2024-05-09T09:31:58.990Z,54.80
2024-05-09T09:37:11.302Z,54.60
2024-05-09T09:42:18.285Z,54.50
2024-05-09T09:47:22.941Z,54.10
2024-05-09T09:52:28.289Z,53.80
2024-05-09T09:57:37.401Z,54.20
2024-05-09T10:02:41.008Z,54.10
2024-05-09T10:07:46.766Z,54.00
2024-05-09T10:13:04.245Z,53.90
2024-05-09T10:18:10.507Z,53.80
2024-05-09T10:23:25.135Z,53.80
2024-05-09T10:28:30.263Z,53.60
2024-05-09T10:33:41.958Z,54.60
2024-05-09T10:38:45.704Z,54.30
2024-05-09T10:43:50.617Z,54.30
2024-05-09T10:48:54.530Z,54.20
2024-05-09T10:53:59.183Z,54.10
2024-05-09T10:59:05.956Z,53.50
2024-05-09T11:04:09.691Z,53.30
2024-05-09T11:09:13.628Z,53.10
2024-05-09T11:14:17.453Z,52.70
2024-05-09T11:19:21.330Z,52.50
2024-05-09T11:24:25.224Z,52.70
2024-05-09T11:29:46.145Z,52.40
2024-05-09T11:34:49.629Z,52.50
2024-05-09T11:39:54.221Z,52.80
2024-05-09T11:44:57.822Z,52.40
2024-05-09T11:50:01.685Z,52.20
2024-05-09T11:55:06.163Z,52.40
2024-05-09T12:00:14.879Z,52.20
2024-05-09T12:05:22.247Z,52.20
2024-05-09T12:10:32.421Z,52.00
2024-05-09T12:15:39.357Z,52.40
2024-05-09T12:20:43.242Z,51.60
2024-05-09T12:25:46.765Z,52.00
2024-05-09T12:30:50.889Z,52.20
2024-05-09T12:35:55.245Z,52.30
2024-05-09T12:40:59.084Z,51.80
2024-05-09T12:46:03.655Z,51.80
2024-05-09T12:51:07.338Z,52.00
2024-05-09T12:56:11.161Z,52.00
2024-05-09T13:01:14.852Z,51.90
2024-05-09T13:06:18.827Z,51.60
2024-05-09T13:11:22.642Z,52.00
2024-05-09T13:16:26.482Z,51.80
2024-05-09T13:21:30.302Z,52.00
2024-05-09T13:26:33.930Z,51.90
2024-05-09T13:31:37.590Z,51.90
2024-05-09T13:36:41.350Z,51.60
2024-05-09T13:41:45.101Z,51.80
2024-05-09T13:46:48.890Z,51.90
2024-05-09T13:51:52.598Z,52.00
2024-05-09T13:56:58.734Z,51.70
2024-05-09T14:02:02.388Z,51.80
2024-05-09T14:07:07.596Z,51.30
2024-05-09T14:12:11.718Z,51.50
2024-05-09T14:17:24.103Z,51.80
2024-05-09T14:22:28.006Z,51.90
2024-05-09T14:27:32.374Z,51.90
2024-05-09T14:32:36.157Z,52.40
2024-05-09T14:37:42.667Z,51.80
2024-05-09T14:42:46.389Z,52.70
2024-05-09T14:47:50.302Z,51.60
2024-05-09T14:52:54.234Z,52.00
2024-05-09T14:57:58.084Z,51.40
2024-05-09T15:03:02.882Z,51.40
2024-05-09T15:08:09.943Z,53.10
2024-05-09T15:13:16.256Z,58.30
2024-05-09T15:18:20.911Z,56.70
2024-05-09T15:23:25.717Z,55.70
2024-05-09T15:28:40.285Z,55.50
2024-05-09T15:33:43.899Z,55.30
2024-05-09T15:38:48.147Z,55.00
2024-05-09T15:43:54.772Z,54.80
2024-05-09T15:48:58.669Z,54.70
2024-05-09T15:54:02.445Z,54.30
2024-05-09T15:59:06.127Z,54.00
2024-05-09T16:04:14.504Z,53.70
2024-05-09T16:09:21.030Z,53.50
2024-05-09T16:14:25.170Z,53.20
2024-05-09T16:19:29.206Z,52.90
2024-05-09T16:24:33.509Z,52.90
2024-05-09T16:29:37.242Z,56.30
2024-05-09T16:34:40.864Z,53.80
2024-05-09T16:39:44.591Z,53.00
2024-05-09T16:44:48.265Z,52.80
2024-05-09T16:49:51.869Z,51.60
2024-05-09T16:54:55.528Z,52.10
2024-05-09T17:00:01.858Z,51.90
2024-05-09T17:05:06.189Z,51.00
2024-05-09T17:10:15.442Z,48.60
2024-05-09T17:15:28.128Z,47.30
2024-05-09T17:20:35.273Z,46.90
2024-05-09T17:25:41.174Z,48.00
2024-05-09T17:30:45.577Z,48.00
2024-05-09T17:35:51.196Z,46.50
2024-05-09T17:40:57.685Z,45.40
2024-05-09T17:46:01.734Z,46.10
2024-05-09T17:51:05.947Z,46.10
2024-05-09T17:56:09.984Z,44.60
2024-05-09T18:01:13.952Z,47.60
2024-05-09T18:06:17.936Z,47.00
2024-05-09T18:11:21.662Z,46.30
2024-05-09T18:16:26.193Z,46.80
2024-05-09T18:21:30.045Z,46.60
2024-05-09T18:26:33.913Z,43.90
2024-05-09T18:31:40.246Z,42.80
2024-05-09T18:36:43.937Z,43.10
2024-05-09T18:41:47.695Z,44.00
2024-05-09T18:46:51.630Z,45.20
2024-05-09T18:51:55.402Z,44.70
2024-05-09T18:56:59.188Z,45.40
2024-05-09T19:02:03.081Z,45.30
2024-05-09T19:07:06.949Z,46.90
2024-05-09T19:12:10.988Z,47.50
2024-05-09T19:17:14.999Z,47.10
2024-05-09T19:22:18.783Z,47.50
2024-05-09T19:27:25.327Z,48.20
2024-05-09T19:32:29.103Z,48.50
2024-05-09T19:37:32.975Z,48.70
2024-05-09T19:42:36.666Z,49.20
2024-05-09T19:47:40.839Z,48.20
2024-05-09T19:52:44.483Z,48.90
2024-05-09T19:57:48.147Z,49.20
2024-05-09T20:02:52.224Z,49.40
2024-05-09T20:07:56.383Z,50.20
2024-05-09T20:13:00.190Z,51.40
2024-05-09T20:18:04.963Z,52.40
2024-05-09T20:23:14.997Z,51.50
2024-05-09T20:28:18.896Z,52.00
2024-05-09T20:33:22.796Z,51.40
2024-05-09T20:38:26.403Z,52.00
2024-05-09T20:43:29.967Z,51.70
2024-05-09T20:48:34.045Z,51.70
2024-05-09T20:53:37.910Z,51.50
2024-05-09T20:58:41.488Z,51.70
2024-05-09T21:03:45.291Z,51.60
2024-05-09T21:08:49.040Z,51.50
2024-05-09T21:13:52.666Z,51.80
2024-05-09T21:18:56.398Z,52.20
2024-05-09T21:24:00.039Z,51.90
2024-05-09T21:29:04.001Z,54.40
2024-05-09T21:34:07.855Z,54.20
2024-05-09T21:39:11.907Z,55.00
2024-05-09T21:44:15.733Z,54.90
2024-05-09T21:49:19.404Z,54.70
2024-05-09T21:54:23.389Z,55.10
2024-05-09T21:59:27.230Z,54.70
2024-05-09T22:04:34.331Z,54.60
2024-05-09T22:09:40.054Z,54.20
2024-05-09T22:14:43.344Z,54.10
2024-05-09T22:19:48.261Z,54.30
2024-05-09T22:24:51.495Z,54.40
2024-05-09T22:29:54.706Z,55.10
2024-05-09T22:34:58.044Z,55.10
2024-05-09T22:40:03.244Z,55.00
2024-05-09T22:45:10.945Z,56.60
2024-05-09T22:50:18.635Z,55.50
2024-05-09T22:55:29.923Z,56.60
2024-05-09T23:00:33.726Z,56.00
2024-05-09T23:05:37.369Z,56.30
2024-05-09T23:10:43.459Z,56.40
2024-05-09T23:15:47.102Z,56.90
2024-05-09T23:20:51.925Z,58.40
2024-05-09T23:25:55.575Z,58.30
2024-05-09T23:30:59.286Z,58.60
2024-05-09T23:36:02.868Z,57.50
2024-05-09T23:41:06.992Z,57.30
2024-05-09T23:46:10.988Z,57.40
2024-05-09T23:51:15.017Z,57.00
2024-05-09T23:56:21.123Z,56.60
